Time;durP1;ratioP1;P1;durP2;ratioP2;P2;SDS_P1;SDS_P2;PMS_P1;PMS_P2;Temp;Humidity;BMP_temperature;BMP_pressure;BME280_temperature;BME280_humidity;BME280_pressure;Samples;Min_cycle;Max_cycle;Signal;HPM_P1;HPM_P2
2021/12/09 00:01:36;;;;;;;19.33;9.40;;;;;;;;;;5014915;28;20121;-81
2021/12/09 00:04:05;;;;;;;17.08;9.27;;;;;;;;;;5022069;28;20566;-80
2021/12/09 00:06:32;;;;;;;21.27;9.45;;;;;;;;;;5026169;28;20049;-83
2021/12/09 00:09:01;;;;;;;21.23;9.20;;;;;;;;;;5038240;28;20387;-81
2021/12/09 00:11:29;;;;;;;18.08;9.77;;;;;;;;;;5042726;28;20084;-81
2021/12/09 00:13:55;;;;;;;21.00;8.85;;;;;;;;;;5022109;28;20144;-80
2021/12/09 00:16:21;;;;;;;18.10;9.27;;;;;;;;;;5037930;28;20052;-80
2021/12/09 00:18:47;;;;;;;18.13;8.85;;;;;;;;;;5012555;28;20503;-80
2021/12/09 00:21:14;;;;;;;15.15;9.43;;;;;;;;;;5037993;28;20085;-81
2021/12/09 00:23:40;;;;;;;16.00;9.65;;;;;;;;;;5030246;28;20590;-80
2021/12/09 00:26:06;;;;;;;27.25;9.93;;;;;;;;;;5026836;28;20041;-80
2021/12/09 00:28:32;;;;;;;17.88;10.18;;;;;;;;;;5026195;28;20123;-81
2021/12/09 00:30:58;;;;;;;22.25;9.77;;;;;;;;;;5035355;28;20055;-80
2021/12/09 00:33:24;;;;;;;20.13;9.75;;;;;;;;;;5044161;28;20041;-78
2021/12/09 00:35:56;;;;;;;20.75;10.02;;;;;;;;;;5038897;28;20461;-80
2021/12/09 00:38:33;;;;;;;21.92;9.70;;;;;;;;;;5025817;28;20492;-80
2021/12/09 00:41:00;;;;;;;16.38;9.65;;;;;;;;;;5024619;28;20064;-80
2021/12/09 00:43:26;;;;;;;17.05;9.07;;;;;;;;;;5021710;28;20602;-82
2021/12/09 00:45:52;;;;;;;20.05;9.63;;;;;;;;;;5024827;28;20401;-81
2021/12/09 00:48:19;;;;;;;14.75;9.20;;;;;;;;;;5026259;28;20052;-80
2021/12/09 00:50:45;;;;;;;19.83;9.40;;;;;;;;;;5024532;28;20041;-80
2021/12/09 00:53:11;;;;;;;16.35;9.25;;;;;;;;;;5023172;28;20049;-80
2021/12/09 00:55:37;;;;;;;20.67;10.40;;;;;;;;;;5026439;28;20045;-78
2021/12/09 00:58:04;;;;;;;20.00;10.23;;;;;;;;;;5025665;28;20049;-79
2021/12/09 01:00:31;;;;;;;20.02;9.57;;;;;;;;;;5025158;28;20042;-80
2021/12/09 01:02:58;;;;;;;20.05;10.32;;;;;;;;;;5027595;28;20433;-79
2021/12/09 01:05:25;;;;;;;16.60;10.18;;;;;;;;;;5022857;28;20076;-80
2021/12/09 01:07:51;;;;;;;19.20;10.57;;;;;;;;;;5038173;28;20116;-80
2021/12/09 01:10:17;;;;;;;14.95;10.70;;;;;;;;;;5033504;28;20049;-80
2021/12/09 01:12:44;;;;;;;15.80;10.15;;;;;;;;;;5045155;28;20067;-81
2021/12/09 01:15:11;;;;;;;20.70;10.45;;;;;;;;;;5039676;28;20052;-80
2021/12/09 01:17:37;;;;;;;19.65;11.18;;;;;;;;;;5042571;28;20045;-79
2021/12/09 01:20:05;;;;;;;25.48;10.63;;;;;;;;;;5031697;28;20475;-81
2021/12/09 01:22:38;;;;;;;24.95;12.05;;;;;;;;;;5026540;28;20044;-80
2021/12/09 01:25:05;;;;;;;18.17;11.60;;;;;;;;;;5028583;28;20088;-81
2021/12/09 01:27:34;;;;;;;23.00;11.45;;;;;;;;;;5018953;28;20049;-80
2021/12/09 01:30:07;;;;;;;21.02;11.20;;;;;;;;;;5027404;28;20084;-79
2021/12/09 01:32:33;;;;;;;23.73;12.48;;;;;;;;;;5040545;28;20037;-82
2021/12/09 01:35:00;;;;;;;19.52;11.82;;;;;;;;;;5042731;28;20083;-80
2021/12/09 01:37:26;;;;;;;22.20;11.48;;;;;;;;;;5029320;28;20380;-80
2021/12/09 01:39:52;;;;;;;23.25;12.05;;;;;;;;;;5038879;28;20130;-79
2021/12/09 01:42:20;;;;;;;19.95;11.75;;;;;;;;;;5041553;28;20091;-80
2021/12/09 01:44:46;;;;;;;20.38;11.10;;;;;;;;;;5025960;28;20203;-80
2021/12/09 01:47:12;;;;;;;24.35;12.85;;;;;;;;;;5031397;28;20041;-81
2021/12/09 01:49:38;;;;;;;23.77;11.43;;;;;;;;;;5035112;28;20087;-79
2021/12/09 01:52:05;;;;;;;26.38;13.00;;;;;;;;;;5011221;28;20061;-80
2021/12/09 01:54:32;;;;;;;28.98;13.13;;;;;;;;;;5034215;28;20091;-81
2021/12/09 01:56:59;;;;;;;20.13;12.50;;;;;;;;;;5041188;28;20047;-81
2021/12/09 01:59:26;;;;;;;20.27;11.60;;;;;;;;;;5019076;28;20417;-80
2021/12/09 02:01:53;;;;;;;23.63;11.85;;;;;;;;;;4993162;28;20057;-79
2021/12/09 02:04:19;;;;;;;21.60;11.00;;;;;;;;;;5033871;28;20049;-79
2021/12/09 02:06:45;;;;;;;23.77;13.70;;;;;;;;;;5042808;28;20049;-80
2021/12/09 02:09:13;;;;;;;25.85;12.57;;;;;;;;;;5032833;28;20029;-80
2021/12/09 02:11:39;;;;;;;20.15;12.88;;;;;;;;;;5022304;28;20084;-78
2021/12/09 02:14:07;;;;;;;20.17;14.20;;;;;;;;;;5026240;28;20080;-80
2021/12/09 02:16:34;;;;;;;20.63;12.88;;;;;;;;;;5025842;28;20115;-80
2021/12/09 02:19:00;;;;;;;25.30;13.60;;;;;;;;;;5030613;28;20516;-81
2021/12/09 02:21:28;;;;;;;22.88;13.95;;;;;;;;;;5009706;28;20128;-81
2021/12/09 02:23:56;;;;;;;21.40;14.27;;;;;;;;;;5031747;28;20030;-80
2021/12/09 02:26:24;;;;;;;22.52;14.38;;;;;;;;;;5035993;28;20148;-82
2021/12/09 02:28:51;;;;;;;23.38;13.95;;;;;;;;;;5030258;28;20030;-79
2021/12/09 02:31:17;;;;;;;28.73;14.85;;;;;;;;;;5028575;28;20041;-81
2021/12/09 02:33:43;;;;;;;22.88;12.95;;;;;;;;;;5026406;28;20042;-80
2021/12/09 02:36:09;;;;;;;27.52;14.20;;;;;;;;;;5037295;28;20038;-81
2021/12/09 02:38:42;;;;;;;24.75;14.38;;;;;;;;;;5013017;28;20041;-81
2021/12/09 02:41:10;;;;;;;26.38;15.00;;;;;;;;;;5027685;28;20048;-80
2021/12/09 02:43:37;;;;;;;24.88;14.82;;;;;;;;;;5040097;28;20039;-82
2021/12/09 02:46:03;;;;;;;21.58;14.98;;;;;;;;;;5047021;28;20045;-81
2021/12/09 02:48:29;;;;;;;28.20;15.38;;;;;;;;;;5036325;28;20576;-80
2021/12/09 02:50:55;;;;;;;25.40;15.88;;;;;;;;;;5024484;28;20055;-80
2021/12/09 02:53:22;;;;;;;30.27;17.23;;;;;;;;;;5037747;28;20040;-80
2021/12/09 02:55:48;;;;;;;34.30;18.40;;;;;;;;;;5044273;28;20053;-80
2021/12/09 02:58:14;;;;;;;26.50;16.60;;;;;;;;;;5022103;28;20037;-80
2021/12/09 03:01:14;;;;;;;30.60;17.38;;;;;;;;;;5030835;28;20072;-81
2021/12/09 03:03:48;;;;;;;31.92;17.48;;;;;;;;;;4997829;28;20053;-80
2021/12/09 03:06:14;;;;;;;31.52;18.77;;;;;;;;;;5027759;28;20850;-81
2021/12/09 03:08:41;;;;;;;28.65;17.02;;;;;;;;;;5029959;28;20037;-80
2021/12/09 03:11:09;;;;;;;27.17;17.35;;;;;;;;;;5040680;28;20042;-80
2021/12/09 03:13:35;;;;;;;36.08;18.33;;;;;;;;;;5041935;28;20044;-80
2021/12/09 03:16:02;;;;;;;30.40;17.98;;;;;;;;;;5028402;28;20136;-80
2021/12/09 03:18:28;;;;;;;29.73;18.40;;;;;;;;;;5011129;28;20382;-80
2021/12/09 03:20:54;;;;;;;29.10;17.58;;;;;;;;;;5031555;28;20045;-79
2021/12/09 03:23:22;;;;;;;27.00;17.20;;;;;;;;;;5027105;28;20076;-80
2021/12/09 03:25:48;;;;;;;35.92;19.40;;;;;;;;;;5028263;28;20112;-79
2021/12/09 03:28:14;;;;;;;32.38;19.00;;;;;;;;;;5045960;28;20037;-80
2021/12/09 03:30:40;;;;;;;26.65;17.70;;;;;;;;;;5035527;28;20489;-80
2021/12/09 03:33:06;;;;;;;30.35;18.02;;;;;;;;;;5039593;28;20052;-78
2021/12/09 03:35:32;;;;;;;31.33;18.60;;;;;;;;;;5020870;28;20087;-79
2021/12/09 03:37:59;;;;;;;30.10;17.98;;;;;;;;;;5030565;28;20413;-79
2021/12/09 03:40:25;;;;;;;26.73;17.20;;;;;;;;;;5024357;28;20049;-80
2021/12/09 03:42:51;;;;;;;28.33;19.70;;;;;;;;;;5028234;28;20133;-80
2021/12/09 03:45:17;;;;;;;33.85;19.17;;;;;;;;;;5028049;28;20049;-80
2021/12/09 03:47:43;;;;;;;35.80;20.67;;;;;;;;;;5037092;28;20147;-81
2021/12/09 03:50:10;;;;;;;34.97;19.88;;;;;;;;;;5020860;28;20603;-79
2021/12/09 03:52:37;;;;;;;32.80;19.95;;;;;;;;;;5023860;28;20085;-81
2021/12/09 03:55:05;;;;;;;34.67;20.00;;;;;;;;;;5027013;28;20037;-80
2021/12/09 03:57:31;;;;;;;34.40;20.15;;;;;;;;;;5026000;28;20049;-80
2021/12/09 03:59:57;;;;;;;33.50;20.25;;;;;;;;;;5024587;28;20437;-80
2021/12/09 04:02:24;;;;;;;35.97;20.95;;;;;;;;;;5021304;28;20077;-81
2021/12/09 04:04:50;;;;;;;34.95;21.02;;;;;;;;;;5018884;28;20125;-80
2021/12/09 04:07:17;;;;;;;34.35;22.08;;;;;;;;;;5017254;28;20076;-80
2021/12/09 04:09:43;;;;;;;34.05;22.00;;;;;;;;;;5023247;28;20064;-79
2021/12/09 04:12:09;;;;;;;38.05;22.83;;;;;;;;;;5026977;28;20404;-81
2021/12/09 04:14:35;;;;;;;32.55;22.35;;;;;;;;;;5016790;28;20088;-79
2021/12/09 04:17:01;;;;;;;33.08;22.30;;;;;;;;;;5025148;28;20069;-80
2021/12/09 04:19:28;;;;;;;39.17;22.60;;;;;;;;;;5025523;28;20489;-80
2021/12/09 04:21:54;;;;;;;35.35;21.83;;;;;;;;;;5040426;28;20056;-78
2021/12/09 04:24:21;;;;;;;36.70;21.67;;;;;;;;;;5030336;28;20522;-82
2021/12/09 04:26:49;;;;;;;33.10;21.42;;;;;;;;;;5021798;28;20058;-79
2021/12/09 04:29:15;;;;;;;35.35;21.73;;;;;;;;;;5017298;28;20057;-80
2021/12/09 04:31:41;;;;;;;33.88;21.40;;;;;;;;;;5020852;28;20557;-80
2021/12/09 04:34:08;;;;;;;35.70;21.45;;;;;;;;;;5034329;28;20125;-79
2021/12/09 04:36:34;;;;;;;35.20;22.05;;;;;;;;;;5024601;28;20053;-80
2021/12/09 04:39:00;;;;;;;35.75;22.98;;;;;;;;;;5026637;28;20114;-81
2021/12/09 04:41:26;;;;;;;32.92;22.05;;;;;;;;;;5021388;28;20053;-80
2021/12/09 04:43:53;;;;;;;42.20;22.30;;;;;;;;;;5025580;28;20549;-79
2021/12/09 04:46:19;;;;;;;36.38;23.25;;;;;;;;;;5043691;28;20051;-81
2021/12/09 04:48:45;;;;;;;35.22;22.42;;;;;;;;;;5042373;28;20045;-81
2021/12/09 04:51:12;;;;;;;35.67;23.08;;;;;;;;;;5032065;28;20467;-81
2021/12/09 04:53:38;;;;;;;36.72;22.50;;;;;;;;;;5033807;28;20045;-82
2021/12/09 04:56:04;;;;;;;30.73;22.08;;;;;;;;;;5028654;28;20111;-81
2021/12/09 04:58:30;;;;;;;33.78;22.20;;;;;;;;;;5028399;28;20061;-80
2021/12/09 05:00:58;;;;;;;32.38;22.42;;;;;;;;;;5021708;28;20505;-81
2021/12/09 05:03:24;;;;;;;36.13;21.90;;;;;;;;;;5006312;28;20496;-81
2021/12/09 05:05:52;;;;;;;32.60;20.35;;;;;;;;;;5020586;28;20042;-81
2021/12/09 05:08:20;;;;;;;36.97;21.38;;;;;;;;;;5032135;28;20036;-80
2021/12/09 05:10:59;;;;;;;34.78;22.23;;;;;;;;;;5024691;28;20133;-81
2021/12/09 05:13:26;;;;;;;33.60;22.98;;;;;;;;;;5028870;28;20052;-80
2021/12/09 05:15:52;;;;;;;34.50;22.55;;;;;;;;;;5030915;28;20378;-80
2021/12/09 05:18:19;;;;;;;35.53;23.02;;;;;;;;;;5032441;28;20076;-82
2021/12/09 05:20:46;;;;;;;32.20;22.17;;;;;;;;;;5025049;28;20099;-79
2021/12/09 05:23:13;;;;;;;35.00;23.55;;;;;;;;;;5026777;28;20072;-80
2021/12/09 05:25:39;;;;;;;41.08;23.80;;;;;;;;;;5025368;28;20034;-80
2021/12/09 05:28:07;;;;;;;33.38;22.05;;;;;;;;;;5017381;28;20041;-80
2021/12/09 05:32:07;;;;;;;36.22;24.92;;;;;;;;;;5022879;28;20073;-81
2021/12/09 05:33:27;;;;;;;34.85;22.38;;;;;;;;;;5022962;28;20481;-80
2021/12/09 05:35:53;;;;;;;34.88;23.58;;;;;;;;;;5004184;28;20053;-81
2021/12/09 05:38:19;;;;;;;44.80;25.00;;;;;;;;;;5020181;28;20037;-81
2021/12/09 05:40:45;;;;;;;44.92;25.08;;;;;;;;;;5024439;28;20045;-80
2021/12/09 05:43:12;;;;;;;37.95;22.40;;;;;;;;;;5024261;28;20042;-78
2021/12/09 05:45:38;;;;;;;36.22;25.05;;;;;;;;;;5024079;28;20083;-79
2021/12/09 05:48:04;;;;;;;37.83;22.13;;;;;;;;;;5020029;28;20034;-79
2021/12/09 05:50:30;;;;;;;38.13;22.92;;;;;;;;;;5023034;28;20053;-79
2021/12/09 05:52:56;;;;;;;43.63;24.45;;;;;;;;;;5028229;28;20520;-80
2021/12/09 05:55:22;;;;;;;39.42;22.50;;;;;;;;;;5035444;28;20059;-81
2021/12/09 05:57:48;;;;;;;43.17;22.05;;;;;;;;;;5036297;28;20100;-81
2021/12/09 06:00:15;;;;;;;40.92;24.90;;;;;;;;;;5041487;28;20048;-81
2021/12/09 06:02:44;;;;;;;39.17;22.30;;;;;;;;;;5033626;28;20025;-80
2021/12/09 06:05:10;;;;;;;46.33;23.08;;;;;;;;;;5032763;28;20075;-81
2021/12/09 06:07:36;;;;;;;48.90;24.15;;;;;;;;;;5037852;28;20712;-81
2021/12/09 06:10:04;;;;;;;45.40;24.60;;;;;;;;;;5033083;28;20623;-81
2021/12/09 06:12:30;;;;;;;36.08;22.45;;;;;;;;;;5043689;28;20415;-81
2021/12/09 06:14:56;;;;;;;41.22;24.52;;;;;;;;;;5043416;28;20045;-81
2021/12/09 06:17:22;;;;;;;42.47;24.40;;;;;;;;;;5038540;28;20041;-81
2021/12/09 06:19:48;;;;;;;43.28;24.45;;;;;;;;;;5011882;28;20045;-81
2021/12/09 06:22:14;;;;;;;43.55;24.15;;;;;;;;;;5036912;28;20044;-80
2021/12/09 06:24:41;;;;;;;47.30;24.42;;;;;;;;;;5038868;28;20036;-81
2021/12/09 06:27:07;;;;;;;43.90;24.83;;;;;;;;;;5030491;28;20052;-80
2021/12/09 06:29:34;;;;;;;40.58;23.80;;;;;;;;;;5027225;28;20076;-80
2021/12/09 06:32:01;;;;;;;43.42;24.52;;;;;;;;;;5027132;28;20103;-79
2021/12/09 06:34:27;;;;;;;41.33;24.20;;;;;;;;;;5020675;28;20049;-80
2021/12/09 06:36:53;;;;;;;42.45;26.15;;;;;;;;;;5027049;28;20041;-80
2021/12/09 06:39:19;;;;;;;39.58;25.45;;;;;;;;;;5021999;28;20377;-80
2021/12/09 06:41:45;;;;;;;42.90;26.95;;;;;;;;;;5020923;28;20580;-80
2021/12/09 06:44:12;;;;;;;54.25;29.08;;;;;;;;;;5023733;28;20041;-81
2021/12/09 06:46:38;;;;;;;43.92;26.23;;;;;;;;;;5032325;28;20041;-80
2021/12/09 06:49:04;;;;;;;47.50;27.05;;;;;;;;;;5011675;28;20042;-80
2021/12/09 06:51:31;;;;;;;44.05;26.83;;;;;;;;;;5016223;28;20405;-81
2021/12/09 06:53:57;;;;;;;48.55;27.15;;;;;;;;;;4999678;28;20108;-81
2021/12/09 06:56:24;;;;;;;43.90;26.08;;;;;;;;;;5025131;28;20412;-80
2021/12/09 06:58:50;;;;;;;44.05;26.17;;;;;;;;;;5022811;28;20405;-80
2021/12/09 07:01:17;;;;;;;46.78;27.98;;;;;;;;;;5030042;28;20041;-80
2021/12/09 07:03:43;;;;;;;46.40;27.40;;;;;;;;;;5022500;28;20139;-80
2021/12/09 07:06:11;;;;;;;40.95;26.73;;;;;;;;;;5015168;28;20057;-82
2021/12/09 07:08:44;;;;;;;43.75;27.60;;;;;;;;;;5022021;28;20045;-80
2021/12/09 07:11:10;;;;;;;49.28;28.95;;;;;;;;;;5024635;28;20148;-82
2021/12/09 07:13:36;;;;;;;49.13;29.55;;;;;;;;;;5025543;28;20053;-80
2021/12/09 07:16:03;;;;;;;50.70;29.95;;;;;;;;;;5026426;28;20120;-80
2021/12/09 07:18:29;;;;;;;49.30;28.98;;;;;;;;;;5023505;28;20048;-81
2021/12/09 07:20:56;;;;;;;47.08;29.33;;;;;;;;;;5030954;28;20122;-81
2021/12/09 07:23:22;;;;;;;55.90;29.20;;;;;;;;;;5032503;28;20038;-81
2021/12/09 07:25:48;;;;;;;48.35;29.15;;;;;;;;;;5027140;28;20041;-80
2021/12/09 07:28:14;;;;;;;49.08;29.55;;;;;;;;;;5029317;28;20532;-81
2021/12/09 07:30:40;;;;;;;48.65;27.73;;;;;;;;;;5024536;28;20390;-80
2021/12/09 07:33:06;;;;;;;39.97;26.27;;;;;;;;;;5027742;28;20041;-81
2021/12/09 07:35:33;;;;;;;43.95;27.80;;;;;;;;;;5025115;28;20382;-81
2021/12/09 07:37:59;;;;;;;43.85;27.30;;;;;;;;;;5027604;28;20501;-81
2021/12/09 07:40:26;;;;;;;48.13;26.92;;;;;;;;;;5025738;28;20125;-81
2021/12/09 07:42:52;;;;;;;50.33;27.40;;;;;;;;;;5042285;28;20045;-81
2021/12/09 07:45:19;;;;;;;42.78;25.88;;;;;;;;;;5041570;28;20857;-80
2021/12/09 07:47:46;;;;;;;48.25;27.88;;;;;;;;;;5028410;28;20111;-82
2021/12/09 07:50:14;;;;;;;45.05;26.83;;;;;;;;;;5042272;28;20041;-81
2021/12/09 07:52:41;;;;;;;53.92;27.80;;;;;;;;;;5023445;28;20046;-80
2021/12/09 07:55:08;;;;;;;39.33;26.48;;;;;;;;;;5025168;28;20357;-80
2021/12/09 07:57:35;;;;;;;47.58;28.42;;;;;;;;;;5023354;28;20041;-80
2021/12/09 08:00:03;;;;;;;45.72;28.45;;;;;;;;;;5027205;28;20057;-80
2021/12/09 08:02:29;;;;;;;48.97;29.33;;;;;;;;;;5023691;28;20129;-79
2021/12/09 08:04:55;;;;;;;53.28;28.70;;;;;;;;;;5042424;28;20057;-80
2021/12/09 08:07:21;;;;;;;45.72;29.80;;;;;;;;;;5025462;28;20234;-80
2021/12/09 08:09:47;;;;;;;49.17;29.67;;;;;;;;;;5026479;28;20098;-81
2021/12/09 08:12:13;;;;;;;54.08;29.00;;;;;;;;;;5026209;28;20175;-81
2021/12/09 08:14:39;;;;;;;56.70;29.38;;;;;;;;;;5027216;28;20042;-81
2021/12/09 08:19:50;;;;;;;47.75;26.73;;;;;;;;;;5026782;28;20041;-81
2021/12/09 08:22:17;;;;;;;48.65;27.60;;;;;;;;;;5027766;28;20383;-80
2021/12/09 08:24:43;;;;;;;46.80;28.13;;;;;;;;;;5026244;28;20095;-80
2021/12/09 08:27:09;;;;;;;46.25;27.60;;;;;;;;;;4993536;28;20053;-81
2021/12/09 08:29:35;;;;;;;47.15;28.40;;;;;;;;;;5027513;28;20048;-81
2021/12/09 08:32:01;;;;;;;45.97;27.20;;;;;;;;;;5025248;28;20061;-81
2021/12/09 08:34:27;;;;;;;45.45;24.52;;;;;;;;;;5027407;28;20095;-81
2021/12/09 08:36:53;;;;;;;46.58;27.75;;;;;;;;;;5026376;28;20458;-81
2021/12/09 08:39:19;;;;;;;44.03;27.73;;;;;;;;;;5027652;28;20049;-80
2021/12/09 08:41:45;;;;;;;50.58;27.17;;;;;;;;;;5009682;28;20042;-81
2021/12/09 08:44:12;;;;;;;50.17;26.85;;;;;;;;;;5025296;28;20081;-81
2021/12/09 08:46:38;;;;;;;45.63;26.15;;;;;;;;;;5005641;28;20046;-80
2021/12/09 08:49:04;;;;;;;49.05;28.08;;;;;;;;;;5007118;28;20048;-81
2021/12/09 08:51:30;;;;;;;45.40;26.70;;;;;;;;;;5021986;28;20057;-81
2021/12/09 08:53:58;;;;;;;46.50;26.35;;;;;;;;;;5041916;28;20406;-81
2021/12/09 08:56:25;;;;;;;48.30;28.17;;;;;;;;;;5026191;28;20111;-81
2021/12/09 08:58:51;;;;;;;46.30;27.27;;;;;;;;;;5026810;28;20040;-80
2021/12/09 09:01:17;;;;;;;42.90;25.92;;;;;;;;;;5025417;28;20519;-80
2021/12/09 09:03:43;;;;;;;47.47;26.45;;;;;;;;;;5025769;28;20053;-81
2021/12/09 09:06:09;;;;;;;50.25;27.15;;;;;;;;;;5027717;28;20037;-80
2021/12/09 09:08:35;;;;;;;44.22;25.40;;;;;;;;;;5032638;28;20103;-80
2021/12/09 09:11:01;;;;;;;46.33;25.25;;;;;;;;;;5028151;28;20033;-79
2021/12/09 09:13:27;;;;;;;43.63;24.38;;;;;;;;;;5026283;28;20128;-80
2021/12/09 09:15:54;;;;;;;41.05;24.58;;;;;;;;;;5025174;28;20037;-80
2021/12/09 09:18:20;;;;;;;41.35;24.50;;;;;;;;;;5026217;28;20099;-79
2021/12/09 09:20:47;;;;;;;41.90;24.45;;;;;;;;;;5026591;28;20485;-80
2021/12/09 09:23:14;;;;;;;44.97;25.02;;;;;;;;;;5024661;28;20056;-80
2021/12/09 09:25:41;;;;;;;45.17;24.17;;;;;;;;;;5025596;28;20060;-80
2021/12/09 09:28:07;;;;;;;43.13;23.50;;;;;;;;;;5025013;28;20475;-80
2021/12/09 09:30:36;;;;;;;33.75;22.27;;;;;;;;;;5025856;28;20037;-80
2021/12/09 09:33:06;;;;;;;37.38;22.20;;;;;;;;;;5025750;28;20034;-80
2021/12/09 09:35:33;;;;;;;35.10;22.35;;;;;;;;;;5025657;28;20046;-80
2021/12/09 09:37:59;;;;;;;43.15;22.65;;;;;;;;;;5007351;28;20049;-80
2021/12/09 09:40:30;;;;;;;34.90;20.40;;;;;;;;;;5024104;28;20588;-81
2021/12/09 09:43:03;;;;;;;32.75;19.45;;;;;;;;;;5024989;28;20056;-80
2021/12/09 09:45:30;;;;;;;34.53;19.83;;;;;;;;;;5023017;28;20132;-80
2021/12/09 09:47:56;;;;;;;34.25;19.65;;;;;;;;;;5026472;28;20096;-80
2021/12/09 09:50:23;;;;;;;30.77;18.85;;;;;;;;;;5023978;28;20085;-81
2021/12/09 09:52:49;;;;;;;38.22;20.35;;;;;;;;;;5008947;28;20046;-80
2021/12/09 09:55:20;;;;;;;34.47;20.35;;;;;;;;;;5007327;28;20049;-81
2021/12/09 09:57:47;;;;;;;33.22;19.45;;;;;;;;;;5026497;28;20610;-80
2021/12/09 10:00:14;;;;;;;30.27;19.83;;;;;;;;;;5025912;28;20049;-81
2021/12/09 10:02:43;;;;;;;36.45;19.70;;;;;;;;;;5024623;28;20049;-81
2021/12/09 10:05:10;;;;;;;37.30;19.58;;;;;;;;;;5025189;28;20045;-81
2021/12/09 10:07:36;;;;;;;38.03;19.75;;;;;;;;;;5025935;28;20145;-82
2021/12/09 10:10:04;;;;;;;35.40;18.00;;;;;;;;;;5026916;28;20100;-80
2021/12/09 10:12:30;;;;;;;33.25;18.35;;;;;;;;;;5024436;28;20049;-81
2021/12/09 10:14:56;;;;;;;28.58;16.23;;;;;;;;;;5026788;28;20049;-81
2021/12/09 10:17:26;;;;;;;25.55;15.73;;;;;;;;;;5026297;28;20132;-81
2021/12/09 10:19:56;;;;;;;24.58;14.13;;;;;;;;;;5026330;28;20053;-80
2021/12/09 10:22:24;;;;;;;20.33;13.30;;;;;;;;;;5026287;28;20049;-80
2021/12/09 10:24:52;;;;;;;24.73;12.30;;;;;;;;;;5026353;28;20037;-82
2021/12/09 10:27:32;;;;;;;20.95;12.00;;;;;;;;;;5026732;28;20049;-81
2021/12/09 10:30:03;;;;;;;23.38;12.90;;;;;;;;;;5025886;28;20048;-81
2021/12/09 10:32:32;;;;;;;22.23;12.15;;;;;;;;;;5025256;28;20045;-81
2021/12/09 10:35:04;;;;;;;14.30;10.20;;;;;;;;;;5029981;28;20128;-81
2021/12/09 10:37:31;;;;;;;18.00;10.65;;;;;;;;;;5037235;28;20033;-82
2021/12/09 10:39:59;;;;;;;18.55;10.23;;;;;;;;;;5044826;28;20477;-82
2021/12/09 10:42:27;;;;;;;21.10;10.38;;;;;;;;;;5023926;28;20697;-80
2021/12/09 10:44:53;;;;;;;21.85;10.77;;;;;;;;;;5023723;28;20048;-81
2021/12/09 10:50:16;;;;;;;15.63;10.32;;;;;;;;;;5028487;28;20061;-82
2021/12/09 10:52:44;;;;;;;19.38;9.60;;;;;;;;;;5028063;28;20081;-82
2021/12/09 10:55:30;;;;;;;20.33;10.68;;;;;;;;;;5026080;28;20079;-81
2021/12/09 10:57:58;;;;;;;16.85;9.10;;;;;;;;;;5027052;28;20049;-81
2021/12/09 11:00:26;;;;;;;18.38;10.73;;;;;;;;;;5027635;28;20075;-81
2021/12/09 11:03:07;;;;;;;21.75;10.25;;;;;;;;;;5027917;28;20095;-81
2021/12/09 11:05:35;;;;;;;20.25;10.00;;;;;;;;;;5043263;28;20038;-81
2021/12/09 11:08:16;;;;;;;16.15;9.35;;;;;;;;;;5026758;28;20030;-81
2021/12/09 11:10:47;;;;;;;26.40;9.98;;;;;;;;;;5028088;28;20060;-81
2021/12/09 11:13:13;;;;;;;20.63;10.32;;;;;;;;;;5027057;28;20083;-80
2021/12/09 11:15:57;;;;;;;16.23;9.68;;;;;;;;;;5027362;28;20048;-80
2021/12/09 11:18:49;;;;;;;16.77;9.38;;;;;;;;;;5026779;28;20366;-81
2021/12/09 11:21:21;;;;;;;14.57;8.55;;;;;;;;;;5024436;28;20468;-81
2021/12/09 11:23:51;;;;;;;17.52;8.52;;;;;;;;;;5029464;28;20068;-81
2021/12/09 11:26:35;;;;;;;18.60;8.15;;;;;;;;;;5027658;28;20498;-83
2021/12/09 11:29:08;;;;;;;20.30;8.45;;;;;;;;;;5027688;28;20124;-82
2021/12/09 11:31:38;;;;;;;20.75;8.85;;;;;;;;;;5027550;28;20046;-82
2021/12/09 11:34:12;;;;;;;17.15;9.25;;;;;;;;;;5024583;28;20037;-81
2021/12/09 11:36:43;;;;;;;20.10;9.23;;;;;;;;;;5026716;28;20064;-82
2021/12/09 11:39:13;;;;;;;17.33;9.90;;;;;;;;;;5024309;28;20398;-81
2021/12/09 11:41:41;;;;;;;16.85;9.75;;;;;;;;;;5027238;28;20045;-81
2021/12/09 11:44:09;;;;;;;20.17;10.15;;;;;;;;;;5024392;28;20175;-81
2021/12/09 11:46:35;;;;;;;21.95;10.15;;;;;;;;;;5025719;28;20041;-81
2021/12/09 11:49:02;;;;;;;21.55;10.70;;;;;;;;;;5027926;28;20048;-81
2021/12/09 11:51:28;;;;;;;17.40;9.98;;;;;;;;;;5032532;28;20179;-81
2021/12/09 11:53:56;;;;;;;22.90;10.88;;;;;;;;;;5028430;28;20159;-81
2021/12/09 11:59:22;;;;;;;20.08;11.43;;;;;;;;;;5027822;28;20045;-81
2021/12/09 12:07:56;;;;;;;23.27;12.57;;;;;;;;;;5025289;28;20052;-81
2021/12/09 12:13:32;;;;;;;19.25;11.88;;;;;;;;;;5024729;28;20448;-81
2021/12/09 12:16:19;;;;;;;19.38;12.00;;;;;;;;;;5025234;28;20053;-81
2021/12/09 12:18:57;;;;;;;24.45;12.20;;;;;;;;;;5026671;28;20158;-82
2021/12/09 12:34:57;;;;;;;21.17;12.10;;;;;;;;;;5039974;28;20118;-80
2021/12/09 12:37:53;;;;;;;23.17;11.48;;;;;;;;;;5028004;28;20604;-80
2021/12/09 12:40:21;;;;;;;17.92;9.18;;;;;;;;;;5026173;28;20053;-81
2021/12/09 12:42:53;;;;;;;18.35;12.15;;;;;;;;;;5027320;28;20052;-80
2021/12/09 12:47:56;;;;;;;18.25;9.85;;;;;;;;;;5026992;28;20057;-80
2021/12/09 12:50:23;;;;;;;25.77;15.07;;;;;;;;;;5027755;28;20138;-80
2021/12/09 12:52:50;;;;;;;28.60;14.50;;;;;;;;;;5026990;28;20126;-81
2021/12/09 12:55:20;;;;;;;22.60;11.75;;;;;;;;;;5027237;28;20038;-81
2021/12/09 12:57:50;;;;;;;30.65;15.80;;;;;;;;;;5027010;28;20092;-81
2021/12/09 13:00:19;;;;;;;33.85;15.57;;;;;;;;;;5026718;28;20049;-80
2021/12/09 13:16:02;;;;;;;33.05;17.55;;;;;;;;;;5027081;28;20140;-81
2021/12/09 13:21:38;;;;;;;37.10;18.60;;;;;;;;;;5024963;28;20064;-80
2021/12/09 13:24:20;;;;;;;36.75;15.52;;;;;;;;;;5026527;28;20124;-80
2021/12/09 13:38:19;;;;;;;31.25;16.83;;;;;;;;;;5026959;28;20045;-80
2021/12/09 13:46:43;;;;;;;35.55;18.05;;;;;;;;;;5027718;28;20064;-80
2021/12/09 13:51:56;;;;;;;37.75;18.58;;;;;;;;;;5026229;28;20057;-80
2021/12/09 13:56:48;;;;;;;32.08;17.60;;;;;;;;;;5024427;28;20053;-80
2021/12/09 13:59:18;;;;;;;34.38;17.77;;;;;;;;;;5025131;28;20423;-81
2021/12/09 14:01:45;;;;;;;28.10;17.50;;;;;;;;;;5025555;28;20053;-81
2021/12/09 14:04:12;;;;;;;29.52;17.80;;;;;;;;;;5025078;28;20045;-80
2021/12/09 14:06:46;;;;;;;28.73;16.70;;;;;;;;;;5024791;28;20046;-81
2021/12/09 14:09:12;;;;;;;;;;;;;;;;;;5025434;28;20568;-80
2021/12/09 14:11:45;;;;;;;29.83;17.00;;;;;;;;;;5026168;28;20009;-81
2021/12/09 14:14:16;;;;;;;33.72;16.70;;;;;;;;;;5025678;28;20120;-81
2021/12/09 14:16:56;;;;;;;32.83;17.55;;;;;;;;;;5026594;28;20149;-80
2021/12/09 14:21:49;;;;;;;32.85;17.95;;;;;;;;;;5029979;28;20405;-80
2021/12/09 14:24:20;;;;;;;29.95;16.42;;;;;;;;;;5029852;28;20037;-80
2021/12/09 14:27:09;;;;;;;34.83;16.95;;;;;;;;;;5028154;28;20527;-80
2021/12/09 14:29:35;;;;;;;34.97;16.50;;;;;;;;;;5028761;28;20048;-81
2021/12/09 14:32:05;;;;;;;31.60;17.05;;;;;;;;;;5027806;28;20049;-80
2021/12/09 14:34:38;;;;;;;32.63;17.27;;;;;;;;;;5030018;28;20408;-80
2021/12/09 14:37:04;;;;;;;31.45;18.25;;;;;;;;;;5029600;28;20140;-81
2021/12/09 14:39:31;;;;;;;41.22;17.88;;;;;;;;;;5029674;28;20049;-80
2021/12/09 14:42:24;;;;;;;31.67;16.95;;;;;;;;;;5029967;28;20080;-79
2021/12/09 14:44:58;;;;;;;29.95;16.15;;;;;;;;;;5026256;28;20103;-80
2021/12/09 14:47:25;;;;;;;;;;;;;;;;;;5024975;28;20073;-80
2021/12/09 14:49:55;;;;;;;33.97;18.25;;;;;;;;;;5022853;28;20403;-80
2021/12/09 14:52:34;;;;;;;32.95;17.55;;;;;;;;;;5050975;28;20049;-80
2021/12/09 14:55:18;;;;;;;27.38;17.05;;;;;;;;;;5042147;28;20103;-80
2021/12/09 14:57:54;;;;;;;42.42;18.30;;;;;;;;;;5040792;28;20049;-80
2021/12/09 15:00:30;;;;;;;31.67;17.13;;;;;;;;;;5022040;28;21286;-80
2021/12/09 15:02:56;;;;;;;30.80;19.50;;;;;;;;;;5025352;28;20045;-80
2021/12/09 15:05:22;;;;;;;34.05;19.67;;;;;;;;;;5024807;28;20038;-85
2021/12/09 15:07:52;;;;;;;32.28;19.08;;;;;;;;;;5021709;28;20049;-83
2021/12/09 15:10:21;;;;;;;35.33;18.48;;;;;;;;;;5016667;28;20057;-85
2021/12/09 15:12:48;;;;;;;27.83;15.45;;;;;;;;;;5021983;28;20151;-85
2021/12/09 15:15:21;;;;;;;29.27;14.80;;;;;;;;;;5018548;28;20543;-85
2021/12/09 15:17:53;;;;;;;37.75;19.20;;;;;;;;;;5003400;28;20076;-85
2021/12/09 15:20:19;;;;;;;33.58;19.77;;;;;;;;;;5020579;28;20050;-84
2021/12/09 15:22:55;;;;;;;32.65;17.30;;;;;;;;;;5004493;28;20065;-84
2021/12/09 15:25:21;;;;;;;33.15;17.63;;;;;;;;;;5020763;28;20068;-83
2021/12/09 15:28:01;;;;;;;31.48;17.60;;;;;;;;;;5024962;28;20041;-85
2021/12/09 15:30:47;;;;;;;31.95;18.05;;;;;;;;;;5025475;28;20041;-85
2021/12/09 15:33:16;;;;;;;37.63;20.27;;;;;;;;;;5025496;28;20072;-84
2021/12/09 15:35:42;;;;;;;31.80;19.30;;;;;;;;;;5025725;28;20585;-84
2021/12/09 15:38:18;;;;;;;39.80;20.40;;;;;;;;;;5025551;28;20472;-84
2021/12/09 15:40:44;;;;;;;34.17;19.60;;;;;;;;;;5024723;28;20053;-84